Storm Lake, IA

6:31 AM CST on February 12, 2016 (GMT -0600)
Storm Lake Municipal

Weather History for KSLB - May, 2013

Change the Weather History Date:

Sunday, May 26, 2013

  Actual Average Record
Temperature  
Mean Temperature 54 °F -  
Max Temperature 59 °F 71 °F 86 °F (2006)
Min Temperature 50 °F 52 °F 44 °F (1997)
Degree Days  
Heating Degree Days 10    
Growing Degree Days 4 (Base 50)    
Moisture  
Dew Point 54 °F    
Average Humidity 100    
Maximum Humidity 100    
Minimum Humidity 100    
Precipitation  
Precipitation 2.84 in - - ()
Sea Level Pressure  
Sea Level Pressure 30.00 in    
Wind  
Wind Speed 21 mph (ESE)    
Max Wind Speed 31 mph    
Max Gust Speed 38 mph    
Visibility 3 miles    
Events Fog , Rain    
Averages and records for this station are not official NWS values.
T = Trace of Precipitation, MM = Missing Value Source: NWS Daily Summary

Daily Weather History Graph

Daily Weather History Graph

Search for Another Location

Airport or City:

Trip Planner

Search our weather history database for the weather conditions in past years. The results will help you decide how hot, cold, wet, or windy it might be!

Date:

Astronomy

May. 26, 2013 Rise Set
Actual Time 5:49 AM CDT 8:47 PM CDT
Civil Twilight 5:15 AM CDT 9:21 PM CDT
Nautical Twilight 4:33 AM CDT 10:03 PM CDT
Astronomical Twilight 3:43 AM CDT 10:54 PM CDT
Moon 10:35 PM CDT (5/26) 7:19 AM CDT (5/26)
Length of Visible Light 16h 05m
Length of Day
14h 58m
Waning Gibbous, 96% of the Moon is Illuminated
May 26
Waning Gibbous
May 31
Last Quarter
Jun 8
New
Jun 16
First Quarter
Jun 23
Full

Hourly Weather History & Observations

Time (CDT) Temp. Dew Point Humidity Pressure Visibility Wind Dir Wind Speed Gust Speed Precip Events Conditions
12:15 AM 50.0 °F 50.0 °F 100% 30.08 in 0.2 mi ESE 25.3 mph 33.4 mph N/A Fog Fog
12:35 AM 50.0 °F 50.0 °F 100% 30.07 in 0.5 mi ESE 23.0 mph 29.9 mph N/A Fog Fog
12:55 AM 50.0 °F 50.0 °F 100% 30.05 in 0.2 mi ESE 24.2 mph 31.1 mph N/A Fog Fog
1:15 AM 50.0 °F 50.0 °F 100% 30.05 in 0.2 mi ESE 26.5 mph 35.7 mph N/A Fog Fog
1:35 AM 50.0 °F 50.0 °F 100% 30.04 in 0.2 mi ESE 27.6 mph - N/A Fog Fog
1:55 AM 50.0 °F 50.0 °F 100% 30.01 in 0.5 mi SE 25.3 mph 32.2 mph N/A Fog Fog
2:15 AM 50.0 °F 50.0 °F 100% 30.01 in 1.8 mi ESE 24.2 mph 32.2 mph N/A   Overcast
2:35 AM 50.0 °F 50.0 °F 100% 30.02 in 2.0 mi ESE 25.3 mph - N/A   Overcast
2:55 AM 50.0 °F 50.0 °F 100% 30.01 in 2.0 mi SE 26.5 mph 34.5 mph N/A   Overcast
3:15 AM 50.0 °F 50.0 °F 100% 29.99 in 2.0 mi SE 29.9 mph 38.0 mph N/A   Overcast
3:35 AM 50.0 °F 50.0 °F 100% 30.01 in 1.0 mi ESE 27.6 mph 33.4 mph N/A   Overcast
3:55 AM 50.0 °F 50.0 °F 100% 30.04 in 1.0 mi East 11.5 mph 27.6 mph N/A   Overcast
4:15 AM 50.0 °F 50.0 °F 100% 30.00 in 0.8 mi ESE 21.9 mph 32.2 mph N/A   Overcast
4:35 AM 50.0 °F 50.0 °F 100% 30.03 in 0.5 mi ESE 23.0 mph 28.8 mph N/A   Overcast
4:55 AM 50.0 °F 50.0 °F 100% 30.02 in 0.5 mi ESE 16.1 mph 25.3 mph N/A   Light Drizzle
5:15 AM 50.0 °F 50.0 °F 100% 30.02 in 0.2 mi East 16.1 mph 28.8 mph N/A Fog Fog
5:35 AM 50.0 °F 50.0 °F 100% 30.04 in 0.2 mi ESE 16.1 mph 23.0 mph N/A Fog Fog
5:55 AM 50.0 °F 50.0 °F 100% 30.09 in 0.5 mi NNE 10.4 mph - N/A   Overcast
6:15 AM 50.0 °F 50.0 °F 100% 30.07 in 1.2 mi ENE 15.0 mph 20.7 mph N/A   Light Drizzle
6:35 AM 50.0 °F 50.0 °F 100% 30.09 in 1.5 mi NE 12.7 mph 18.4 mph N/A   Light Drizzle
6:55 AM 50.0 °F 50.0 °F 100% 30.09 in 1.5 mi ENE 17.3 mph - 0.05 in Rain Light Rain
7:15 AM 50.0 °F 50.0 °F 100% 30.09 in 2.0 mi East 13.8 mph 23.0 mph N/A Rain Light Rain
7:35 AM 50.0 °F 50.0 °F 100% 30.05 in - ESE 19.6 mph 28.8 mph N/A   Overcast
7:55 AM 50.0 °F 50.0 °F 100% 30.06 in 2.5 mi East 19.6 mph - 0.21 in Rain Rain
8:15 AM 50.0 °F 50.0 °F 100% 30.10 in 1.2 mi East 12.7 mph - N/A Rain Rain
8:35 AM 50.0 °F 50.0 °F 100% 30.04 in 1.5 mi ESE 23.0 mph 28.8 mph N/A Rain Light Rain
8:55 AM 50.0 °F 50.0 °F 100% 29.98 in 2.0 mi ESE 31.1 mph - 0.15 in   Light Drizzle
9:15 AM 50.0 °F 50.0 °F 100% 29.99 in 2.5 mi SE 27.6 mph 35.7 mph N/A   Overcast
9:35 AM 50.0 °F 50.0 °F 100% 29.99 in 3.0 mi SE 23.0 mph 33.4 mph N/A   Overcast
9:55 AM 51.8 °F 51.8 °F 100% 29.98 in 4.0 mi SE 24.2 mph 31.1 mph N/A   Overcast
10:15 AM 51.8 °F 51.8 °F 100% 29.97 in 3.0 mi SE 23.0 mph 29.9 mph N/A   Overcast
10:35 AM 53.6 °F 53.6 °F 100% 29.97 in 5.0 mi SSE 25.3 mph 32.2 mph N/A   Overcast
10:55 AM 55.4 °F 55.4 °F 100% 29.98 in 7.0 mi SE 23.0 mph 29.9 mph N/A   Overcast
11:15 AM 57.2 °F 57.2 °F 100% 30.00 in 9.0 mi SSE 23.0 mph 28.8 mph N/A   Overcast
11:35 AM 57.2 °F 57.2 °F 100% 30.01 in 9.0 mi SSE 21.9 mph - N/A   Overcast
11:55 AM 57.2 °F 57.2 °F 100% 30.06 in 9.0 mi Calm Calm 18.4 mph N/A   Overcast
12:15 PM 55.4 °F 55.4 °F 100% 30.09 in 1.8 mi North 17.3 mph - N/A Rain Heavy Rain
12:35 PM 55.4 °F 55.4 °F 100% 30.10 in 0.5 mi Variable 3.5 mph 13.8 mph N/A Rain Heavy Rain
12:55 PM 55.4 °F 55.4 °F 100% 30.01 in 0.8 mi SE 21.9 mph - 0.90 in Rain Rain
1:15 PM 55.4 °F 55.4 °F 100% 29.96 in 2.5 mi SE 20.7 mph 28.8 mph N/A   Overcast
1:35 PM 55.4 °F 55.4 °F 100% 29.95 in 4.0 mi SE 23.0 mph - N/A Rain Light Rain
1:55 PM 57.2 °F 57.2 °F 100% 29.98 in 7.0 mi SSE 19.6 mph 31.1 mph 0.05 in   Mostly Cloudy
2:15 PM 59.0 °F 59.0 °F 100% 30.03 in 10.0 mi ENE 5.8 mph 13.8 mph N/A   Scattered Clouds
2:35 PM 59.0 °F 59.0 °F 100% 30.05 in 10.0 mi WNW 8.1 mph - N/A   Mostly Cloudy
2:55 PM 59.0 °F 59.0 °F 100% 29.99 in 1.5 mi ESE 16.1 mph - 0.18 in Rain Rain
3:15 PM 57.2 °F 57.2 °F 100% 30.01 in 5.0 mi SE 5.8 mph - N/A Rain Light Rain
3:35 PM 57.2 °F 57.2 °F 100% 29.98 in 2.5 mi SSE 13.8 mph - N/A Rain Rain
3:55 PM 57.2 °F 57.2 °F 100% 29.94 in 1.8 mi South 24.2 mph - 0.20 in Rain Rain
4:15 PM 57.2 °F 57.2 °F 100% 29.91 in 2.5 mi SSE 17.3 mph 26.5 mph N/A   Mostly Cloudy
4:35 PM 59.0 °F 59.0 °F 100% 29.92 in 5.0 mi SSE 18.4 mph 25.3 mph N/A   Scattered Clouds
4:55 PM 59.0 °F 59.0 °F 100% 29.93 in 4.0 mi South 19.6 mph 27.6 mph 0.03 in   Mostly Cloudy
5:15 PM 59.0 °F 59.0 °F 100% 29.92 in 10.0 mi SW 12.7 mph 18.4 mph N/A   Mostly Cloudy
5:35 PM 59.0 °F 59.0 °F 100% 29.93 in 10.0 mi East 8.1 mph 15.0 mph N/A   Scattered Clouds
5:55 PM 59.0 °F 59.0 °F 100% 29.94 in 9.0 mi NE 15.0 mph - N/A   Partly Cloudy
6:15 PM 59.0 °F 59.0 °F 100% 29.94 in 6.0 mi East 15.0 mph - N/A   Partly Cloudy
6:35 PM 59.0 °F 59.0 °F 100% 29.94 in 4.0 mi East 17.3 mph - N/A   Partly Cloudy
6:55 PM 57.2 °F 57.2 °F 100% 29.95 in 3.0 mi East 19.6 mph - N/A   Mostly Cloudy
7:15 PM 57.2 °F 57.2 °F 100% 29.96 in 1.5 mi ENE 18.4 mph - N/A   Overcast
7:35 PM 57.2 °F 57.2 °F 100% 29.94 in 0.5 mi ENE 24.2 mph 29.9 mph N/A Fog Fog
7:55 PM 55.4 °F 55.4 °F 100% 29.94 in 0.2 mi ENE 19.6 mph 25.3 mph N/A Fog Fog
8:15 PM 55.4 °F 55.4 °F 100% 29.94 in 0.2 mi East 23.0 mph 28.8 mph N/A Fog Fog
8:35 PM 53.6 °F 53.6 °F 100% 29.94 in 0.2 mi East 18.4 mph 27.6 mph N/A Fog Fog
8:55 PM 53.6 °F 53.6 °F 100% 29.96 in 0.2 mi East 16.1 mph 21.9 mph N/A Fog Fog
9:15 PM 53.6 °F 53.6 °F 100% 29.96 in 0.2 mi ENE 25.3 mph - N/A Fog Fog
9:35 PM 53.6 °F 53.6 °F 100% 29.92 in 0.2 mi East 25.3 mph 33.4 mph N/A Fog Fog
9:55 PM 53.6 °F 53.6 °F 100% 29.93 in 0.2 mi East 25.3 mph 35.7 mph N/A Fog Fog
10:15 PM 53.6 °F 53.6 °F 100% 29.94 in 0.5 mi ENE 21.9 mph 34.5 mph N/A Fog Fog
10:35 PM 53.6 °F 53.6 °F 100% 30.01 in 0.5 mi NE 20.7 mph 34.5 mph N/A Fog Fog
10:55 PM 51.8 °F 51.8 °F 100% 29.99 in 1.5 mi ENE 24.2 mph - 0.06 in Rain Rain
11:15 PM 53.6 °F 53.6 °F 100% 29.95 in 3.0 mi ENE 28.8 mph - N/A Rain Heavy Rain
11:35 PM 53.6 °F 53.6 °F 100% 29.99 in 2.0 mi East 17.3 mph - N/A Rain Heavy Rain
11:55 PM 53.6 °F 53.6 °F 100% 29.97 in 0.5 mi ESE 18.4 mph 32.2 mph 1.01 in Rain Rain